sensor_id;sensor_type;location;lat;lon;timestamp;P1;durP1;ratioP1;P2;durP2;ratioP2
40971;SDS011;26701;47.408;19.174;2023-02-15T00:01:43;167.35;;;71.85;;
40971;SDS011;26701;47.408;19.174;2023-02-15T00:04:12;149.23;;;70.55;;
40971;SDS011;26701;47.408;19.174;2023-02-15T00:06:39;164.73;;;72.22;;
40971;SDS011;26701;47.408;19.174;2023-02-15T00:09:05;155.38;;;73.05;;
40971;SDS011;26701;47.408;19.174;2023-02-15T00:11:31;154.88;;;70.72;;
40971;SDS011;26701;47.408;19.174;2023-02-15T00:14:10;166.27;;;74.32;;
40971;SDS011;26701;47.408;19.174;2023-02-15T00:16:53;172.63;;;73.47;;
40971;SDS011;26701;47.408;19.174;2023-02-15T00:19:20;154.98;;;70.63;;
40971;SDS011;26701;47.408;19.174;2023-02-15T00:21:47;163.80;;;72.32;;
40971;SDS011;26701;47.408;19.174;2023-02-15T00:24:14;148.35;;;73.10;;
40971;SDS011;26701;47.408;19.174;2023-02-15T00:26:41;172.88;;;77.95;;
40971;SDS011;26701;47.408;19.174;2023-02-15T00:29:08;143.75;;;69.50;;
40971;SDS011;26701;47.408;19.174;2023-02-15T00:31:35;150.20;;;68.20;;
40971;SDS011;26701;47.408;19.174;2023-02-15T00:34:05;154.80;;;68.95;;
40971;SDS011;26701;47.408;19.174;2023-02-15T00:36:32;157.27;;;68.75;;
40971;SDS011;26701;47.408;19.174;2023-02-15T00:38:58;140.27;;;61.30;;
40971;SDS011;26701;47.408;19.174;2023-02-15T00:41:24;136.60;;;61.05;;
40971;SDS011;26701;47.408;19.174;2023-02-15T00:43:50;130.63;;;59.65;;
40971;SDS011;26701;47.408;19.174;2023-02-15T00:46:16;148.35;;;71.55;;
40971;SDS011;26701;47.408;19.174;2023-02-15T00:48:43;135.98;;;63.63;;
40971;SDS011;26701;47.408;19.174;2023-02-15T00:51:10;121.43;;;59.15;;
40971;SDS011;26701;47.408;19.174;2023-02-15T00:53:35;147.02;;;65.10;;
40971;SDS011;26701;47.408;19.174;2023-02-15T00:56:02;127.03;;;62.65;;
40971;SDS011;26701;47.408;19.174;2023-02-15T00:58:28;147.10;;;62.22;;
40971;SDS011;26701;47.408;19.174;2023-02-15T01:00:54;130.73;;;59.25;;
40971;SDS011;26701;47.408;19.174;2023-02-15T01:03:22;134.55;;;66.10;;
40971;SDS011;26701;47.408;19.174;2023-02-15T01:05:48;151.27;;;64.55;;
40971;SDS011;26701;47.408;19.174;2023-02-15T01:08:15;141.10;;;64.57;;
40971;SDS011;26701;47.408;19.174;2023-02-15T01:10:40;155.75;;;65.97;;
40971;SDS011;26701;47.408;19.174;2023-02-15T01:13:09;143.68;;;62.08;;
40971;SDS011;26701;47.408;19.174;2023-02-15T01:15:35;144.75;;;63.63;;
40971;SDS011;26701;47.408;19.174;2023-02-15T01:18:01;144.70;;;62.90;;
40971;SDS011;26701;47.408;19.174;2023-02-15T01:20:28;130.98;;;61.63;;
40971;SDS011;26701;47.408;19.174;2023-02-15T01:22:54;132.80;;;60.38;;
40971;SDS011;26701;47.408;19.174;2023-02-15T01:25:22;137.48;;;63.88;;
40971;SDS011;26701;47.408;19.174;2023-02-15T01:27:48;129.10;;;60.42;;
40971;SDS011;26701;47.408;19.174;2023-02-15T01:30:15;130.80;;;58.28;;
40971;SDS011;26701;47.408;19.174;2023-02-15T01:32:41;117.53;;;54.05;;
40971;SDS011;26701;47.408;19.174;2023-02-15T01:35:07;129.95;;;53.33;;
40971;SDS011;26701;47.408;19.174;2023-02-15T01:37:34;122.63;;;51.58;;
40971;SDS011;26701;47.408;19.174;2023-02-15T01:40:04;120.15;;;54.60;;
40971;SDS011;26701;47.408;19.174;2023-02-15T01:42:33;115.28;;;54.40;;
40971;SDS011;26701;47.408;19.174;2023-02-15T01:45:03;121.60;;;50.67;;
40971;SDS011;26701;47.408;19.174;2023-02-15T01:47:43;121.22;;;49.13;;
40971;SDS011;26701;47.408;19.174;2023-02-15T01:53:03;109.90;;;50.17;;
40971;SDS011;26701;47.408;19.174;2023-02-15T01:55:34;107.68;;;47.10;;
40971;SDS011;26701;47.408;19.174;2023-02-15T01:58:05;110.38;;;48.63;;
40971;SDS011;26701;47.408;19.174;2023-02-15T02:00:32;110.15;;;48.05;;
40971;SDS011;26701;47.408;19.174;2023-02-15T02:02:58;98.07;;;46.00;;
40971;SDS011;26701;47.408;19.174;2023-02-15T02:05:25;104.85;;;48.00;;
40971;SDS011;26701;47.408;19.174;2023-02-15T02:07:51;98.45;;;45.75;;
40971;SDS011;26701;47.408;19.174;2023-02-15T02:10:19;101.70;;;46.58;;
40971;SDS011;26701;47.408;19.174;2023-02-15T02:12:46;103.60;;;44.50;;
40971;SDS011;26701;47.408;19.174;2023-02-15T02:15:13;102.43;;;46.08;;
40971;SDS011;26701;47.408;19.174;2023-02-15T02:23:51;116.38;;;51.28;;
40971;SDS011;26701;47.408;19.174;2023-02-15T02:26:34;111.57;;;49.45;;
40971;SDS011;26701;47.408;19.174;2023-02-15T02:37:23;107.43;;;48.80;;
40971;SDS011;26701;47.408;19.174;2023-02-15T02:42:42;105.97;;;47.50;;
40971;SDS011;26701;47.408;19.174;2023-02-15T02:45:22;102.80;;;45.40;;
40971;SDS011;26701;47.408;19.174;2023-02-15T02:47:55;105.15;;;44.25;;
40971;SDS011;26701;47.408;19.174;2023-02-15T02:50:26;95.93;;;45.33;;
40971;SDS011;26701;47.408;19.174;2023-02-15T02:52:54;103.63;;;46.58;;
40971;SDS011;26701;47.408;19.174;2023-02-15T03:00:21;101.55;;;46.78;;
40971;SDS011;26701;47.408;19.174;2023-02-15T03:02:50;98.57;;;42.45;;
40971;SDS011;26701;47.408;19.174;2023-02-15T03:05:30;100.93;;;44.70;;
40971;SDS011;26701;47.408;19.174;2023-02-15T03:07:59;106.30;;;45.97;;
40971;SDS011;26701;47.408;19.174;2023-02-15T03:10:31;95.88;;;44.22;;
40971;SDS011;26701;47.408;19.174;2023-02-15T03:12:59;90.38;;;40.15;;
40971;SDS011;26701;47.408;19.174;2023-02-15T03:15:28;97.45;;;42.92;;
40971;SDS011;26701;47.408;19.174;2023-02-15T03:18:16;94.50;;;39.65;;
40971;SDS011;26701;47.408;19.174;2023-02-15T03:20:45;88.35;;;41.83;;
40971;SDS011;26701;47.408;19.174;2023-02-15T03:23:13;89.85;;;41.17;;
40971;SDS011;26701;47.408;19.174;2023-02-15T03:25:44;84.90;;;37.83;;
40971;SDS011;26701;47.408;19.174;2023-02-15T03:28:13;86.07;;;41.83;;
40971;SDS011;26701;47.408;19.174;2023-02-15T03:30:45;90.22;;;40.80;;
40971;SDS011;26701;47.408;19.174;2023-02-15T03:33:12;94.10;;;42.22;;
40971;SDS011;26701;47.408;19.174;2023-02-15T03:35:51;87.07;;;40.45;;
40971;SDS011;26701;47.408;19.174;2023-02-15T03:38:26;90.25;;;39.70;;
40971;SDS011;26701;47.408;19.174;2023-02-15T03:40:59;84.57;;;39.00;;
40971;SDS011;26701;47.408;19.174;2023-02-15T03:46:32;85.00;;;38.13;;
40971;SDS011;26701;47.408;19.174;2023-02-15T03:49:20;80.35;;;36.70;;
40971;SDS011;26701;47.408;19.174;2023-02-15T03:51:48;77.07;;;35.75;;
40971;SDS011;26701;47.408;19.174;2023-02-15T03:54:18;79.13;;;37.50;;
40971;SDS011;26701;47.408;19.174;2023-02-15T03:57:24;88.95;;;37.53;;
40971;SDS011;26701;47.408;19.174;2023-02-15T04:05:36;83.07;;;37.05;;
40971;SDS011;26701;47.408;19.174;2023-02-15T04:08:03;87.75;;;38.10;;
40971;SDS011;26701;47.408;19.174;2023-02-15T04:10:29;86.43;;;38.83;;
40971;SDS011;26701;47.408;19.174;2023-02-15T04:13:14;81.75;;;36.97;;
40971;SDS011;26701;47.408;19.174;2023-02-15T04:15:40;90.00;;;38.75;;
40971;SDS011;26701;47.408;19.174;2023-02-15T04:18:24;88.13;;;38.97;;
40971;SDS011;26701;47.408;19.174;2023-02-15T04:21:09;83.10;;;36.70;;
40971;SDS011;26701;47.408;19.174;2023-02-15T04:23:53;89.95;;;36.20;;
40971;SDS011;26701;47.408;19.174;2023-02-15T04:26:38;98.32;;;40.75;;
40971;SDS011;26701;47.408;19.174;2023-02-15T04:29:04;92.93;;;41.05;;
40971;SDS011;26701;47.408;19.174;2023-02-15T04:31:30;92.28;;;40.92;;
40971;SDS011;26701;47.408;19.174;2023-02-15T04:33:56;81.93;;;39.25;;
40971;SDS011;26701;47.408;19.174;2023-02-15T04:36:22;83.95;;;43.45;;
40971;SDS011;26701;47.408;19.174;2023-02-15T04:38:48;82.88;;;38.15;;
40971;SDS011;26701;47.408;19.174;2023-02-15T04:41:14;98.53;;;41.40;;
40971;SDS011;26701;47.408;19.174;2023-02-15T04:43:40;74.60;;;35.25;;
40971;SDS011;26701;47.408;19.174;2023-02-15T04:46:06;77.97;;;37.28;;
40971;SDS011;26701;47.408;19.174;2023-02-15T04:48:32;75.35;;;36.03;;
40971;SDS011;26701;47.408;19.174;2023-02-15T04:50:58;82.95;;;36.97;;
40971;SDS011;26701;47.408;19.174;2023-02-15T04:53:23;84.68;;;36.28;;
40971;SDS011;26701;47.408;19.174;2023-02-15T04:55:49;92.80;;;35.88;;
40971;SDS011;26701;47.408;19.174;2023-02-15T04:58:15;72.38;;;35.30;;
40971;SDS011;26701;47.408;19.174;2023-02-15T05:00:43;75.95;;;31.52;;
40971;SDS011;26701;47.408;19.174;2023-02-15T05:03:09;86.03;;;33.75;;
40971;SDS011;26701;47.408;19.174;2023-02-15T05:05:35;77.60;;;34.42;;
40971;SDS011;26701;47.408;19.174;2023-02-15T05:08:01;77.90;;;33.35;;
40971;SDS011;26701;47.408;19.174;2023-02-15T05:10:27;77.10;;;32.78;;
40971;SDS011;26701;47.408;19.174;2023-02-15T05:12:53;78.07;;;32.35;;
40971;SDS011;26701;47.408;19.174;2023-02-15T05:15:19;71.57;;;33.13;;
40971;SDS011;26701;47.408;19.174;2023-02-15T05:17:45;70.00;;;35.80;;
40971;SDS011;26701;47.408;19.174;2023-02-15T05:20:11;72.03;;;32.38;;
40971;SDS011;26701;47.408;19.174;2023-02-15T05:22:37;73.53;;;34.97;;
40971;SDS011;26701;47.408;19.174;2023-02-15T05:25:03;87.65;;;37.08;;
40971;SDS011;26701;47.408;19.174;2023-02-15T05:27:48;72.35;;;33.97;;
40971;SDS011;26701;47.408;19.174;2023-02-15T05:30:32;74.85;;;31.77;;
40971;SDS011;26701;47.408;19.174;2023-02-15T05:33:01;74.25;;;34.22;;
40971;SDS011;26701;47.408;19.174;2023-02-15T05:35:27;74.60;;;33.90;;
40971;SDS011;26701;47.408;19.174;2023-02-15T05:37:53;72.40;;;33.67;;
40971;SDS011;26701;47.408;19.174;2023-02-15T05:40:19;74.88;;;31.70;;
40971;SDS011;26701;47.408;19.174;2023-02-15T05:42:45;79.10;;;37.40;;
40971;SDS011;26701;47.408;19.174;2023-02-15T05:45:11;74.22;;;33.33;;
40971;SDS011;26701;47.408;19.174;2023-02-15T05:47:37;80.57;;;34.83;;
40971;SDS011;26701;47.408;19.174;2023-02-15T05:50:04;73.78;;;32.70;;
40971;SDS011;26701;47.408;19.174;2023-02-15T05:52:30;82.57;;;36.15;;
40971;SDS011;26701;47.408;19.174;2023-02-15T05:54:56;77.75;;;34.20;;
40971;SDS011;26701;47.408;19.174;2023-02-15T05:57:23;77.85;;;33.72;;
40971;SDS011;26701;47.408;19.174;2023-02-15T05:59:48;82.68;;;36.17;;
40971;SDS011;26701;47.408;19.174;2023-02-15T06:02:14;83.43;;;36.95;;
40971;SDS011;26701;47.408;19.174;2023-02-15T06:04:41;73.30;;;31.67;;
40971;SDS011;26701;47.408;19.174;2023-02-15T06:07:07;72.20;;;34.22;;
40971;SDS011;26701;47.408;19.174;2023-02-15T06:09:33;82.70;;;35.35;;
40971;SDS011;26701;47.408;19.174;2023-02-15T06:11:59;75.82;;;34.75;;
40971;SDS011;26701;47.408;19.174;2023-02-15T06:14:25;79.13;;;36.35;;
40971;SDS011;26701;47.408;19.174;2023-02-15T06:16:51;76.53;;;35.17;;
40971;SDS011;26701;47.408;19.174;2023-02-15T06:19:16;80.25;;;34.13;;
40971;SDS011;26701;47.408;19.174;2023-02-15T06:21:43;73.65;;;34.28;;
40971;SDS011;26701;47.408;19.174;2023-02-15T06:24:09;71.47;;;32.75;;
40971;SDS011;26701;47.408;19.174;2023-02-15T06:26:35;81.85;;;34.47;;
40971;SDS011;26701;47.408;19.174;2023-02-15T06:29:01;96.47;;;35.92;;
40971;SDS011;26701;47.408;19.174;2023-02-15T06:31:27;82.53;;;33.90;;
40971;SDS011;26701;47.408;19.174;2023-02-15T06:33:53;76.47;;;37.33;;
40971;SDS011;26701;47.408;19.174;2023-02-15T06:36:26;78.30;;;34.75;;
40971;SDS011;26701;47.408;19.174;2023-02-15T06:38:53;66.03;;;33.45;;
40971;SDS011;26701;47.408;19.174;2023-02-15T06:41:19;81.57;;;34.42;;
40971;SDS011;26701;47.408;19.174;2023-02-15T06:43:45;77.63;;;32.85;;
40971;SDS011;26701;47.408;19.174;2023-02-15T06:46:11;78.53;;;34.50;;
40971;SDS011;26701;47.408;19.174;2023-02-15T06:48:38;91.00;;;36.08;;
40971;SDS011;26701;47.408;19.174;2023-02-15T06:51:04;85.35;;;40.25;;
40971;SDS011;26701;47.408;19.174;2023-02-15T06:53:30;82.35;;;37.00;;
40971;SDS011;26701;47.408;19.174;2023-02-15T06:56:00;82.53;;;37.88;;
40971;SDS011;26701;47.408;19.174;2023-02-15T06:58:27;79.38;;;38.63;;
40971;SDS011;26701;47.408;19.174;2023-02-15T07:00:53;87.55;;;38.38;;
40971;SDS011;26701;47.408;19.174;2023-02-15T07:03:20;77.57;;;36.45;;
40971;SDS011;26701;47.408;19.174;2023-02-15T07:05:46;79.32;;;36.70;;
40971;SDS011;26701;47.408;19.174;2023-02-15T07:08:13;75.18;;;36.72;;
40971;SDS011;26701;47.408;19.174;2023-02-15T07:10:43;87.32;;;41.13;;
40971;SDS011;26701;47.408;19.174;2023-02-15T07:13:09;76.82;;;39.72;;
40971;SDS011;26701;47.408;19.174;2023-02-15T07:15:34;88.57;;;39.78;;
40971;SDS011;26701;47.408;19.174;2023-02-15T07:18:00;79.72;;;38.60;;
40971;SDS011;26701;47.408;19.174;2023-02-15T07:20:26;76.15;;;35.75;;
40971;SDS011;26701;47.408;19.174;2023-02-15T07:22:53;76.32;;;35.03;;
40971;SDS011;26701;47.408;19.174;2023-02-15T07:25:19;76.57;;;36.80;;
40971;SDS011;26701;47.408;19.174;2023-02-15T07:27:46;80.30;;;36.53;;
40971;SDS011;26701;47.408;19.174;2023-02-15T07:30:13;78.63;;;36.03;;
40971;SDS011;26701;47.408;19.174;2023-02-15T07:32:40;79.07;;;33.25;;
40971;SDS011;26701;47.408;19.174;2023-02-15T07:35:26;73.57;;;33.70;;
40971;SDS011;26701;47.408;19.174;2023-02-15T07:37:52;70.93;;;37.55;;
40971;SDS011;26701;47.408;19.174;2023-02-15T07:40:18;92.15;;;39.72;;
40971;SDS011;26701;47.408;19.174;2023-02-15T07:42:47;83.93;;;38.08;;
40971;SDS011;26701;47.408;19.174;2023-02-15T07:45:13;84.88;;;36.63;;
40971;SDS011;26701;47.408;19.174;2023-02-15T07:47:39;77.32;;;36.35;;
40971;SDS011;26701;47.408;19.174;2023-02-15T07:50:05;66.57;;;35.72;;
40971;SDS011;26701;47.408;19.174;2023-02-15T07:52:31;75.63;;;38.92;;
40971;SDS011;26701;47.408;19.174;2023-02-15T07:54:57;81.70;;;39.13;;
40971;SDS011;26701;47.408;19.174;2023-02-15T07:57:22;90.32;;;40.80;;
40971;SDS011;26701;47.408;19.174;2023-02-15T07:59:48;86.25;;;39.15;;
40971;SDS011;26701;47.408;19.174;2023-02-15T08:02:14;78.68;;;37.22;;
40971;SDS011;26701;47.408;19.174;2023-02-15T08:04:40;76.20;;;38.92;;
40971;SDS011;26701;47.408;19.174;2023-02-15T08:07:06;71.75;;;35.60;;
40971;SDS011;26701;47.408;19.174;2023-02-15T08:09:33;65.40;;;30.63;;
40971;SDS011;26701;47.408;19.174;2023-02-15T08:11:58;65.18;;;32.72;;
40971;SDS011;26701;47.408;19.174;2023-02-15T08:14:24;60.33;;;29.02;;
40971;SDS011;26701;47.408;19.174;2023-02-15T08:16:53;65.65;;;30.85;;
40971;SDS011;26701;47.408;19.174;2023-02-15T08:19:21;64.80;;;30.63;;
40971;SDS011;26701;47.408;19.174;2023-02-15T08:24:21;70.70;;;33.53;;
40971;SDS011;26701;47.408;19.174;2023-02-15T08:26:49;58.80;;;32.00;;
40971;SDS011;26701;47.408;19.174;2023-02-15T08:29:15;62.72;;;31.58;;
40971;SDS011;26701;47.408;19.174;2023-02-15T08:31:43;61.45;;;31.95;;
40971;SDS011;26701;47.408;19.174;2023-02-15T08:34:10;60.35;;;31.90;;
40971;SDS011;26701;47.408;19.174;2023-02-15T08:36:38;69.00;;;31.17;;
40971;SDS011;26701;47.408;19.174;2023-02-15T08:39:05;61.75;;;32.20;;
40971;SDS011;26701;47.408;19.174;2023-02-15T08:41:32;61.63;;;31.35;;
40971;SDS011;26701;47.408;19.174;2023-02-15T08:44:05;57.10;;;30.88;;
40971;SDS011;26701;47.408;19.174;2023-02-15T08:46:33;63.03;;;31.35;;
40971;SDS011;26701;47.408;19.174;2023-02-15T08:49:01;63.25;;;30.98;;
40971;SDS011;26701;47.408;19.174;2023-02-15T08:51:29;59.22;;;28.92;;
40971;SDS011;26701;47.408;19.174;2023-02-15T08:53:58;52.45;;;25.30;;
40971;SDS011;26701;47.408;19.174;2023-02-15T08:56:25;52.47;;;24.08;;
40971;SDS011;26701;47.408;19.174;2023-02-15T08:58:56;55.50;;;25.02;;
40971;SDS011;26701;47.408;19.174;2023-02-15T09:01:24;52.50;;;25.17;;
40971;SDS011;26701;47.408;19.174;2023-02-15T09:03:52;51.10;;;25.20;;
40971;SDS011;26701;47.408;19.174;2023-02-15T09:06:21;48.00;;;24.30;;
40971;SDS011;26701;47.408;19.174;2023-02-15T09:08:51;48.55;;;24.85;;
40971;SDS011;26701;47.408;19.174;2023-02-15T09:11:19;43.00;;;23.38;;
40971;SDS011;26701;47.408;19.174;2023-02-15T09:13:54;45.50;;;22.65;;
40971;SDS011;26701;47.408;19.174;2023-02-15T09:16:21;46.25;;;22.65;;
40971;SDS011;26701;47.408;19.174;2023-02-15T09:18:49;50.65;;;24.13;;
40971;SDS011;26701;47.408;19.174;2023-02-15T09:21:16;45.92;;;23.15;;
40971;SDS011;26701;47.408;19.174;2023-02-15T09:23:45;45.58;;;22.88;;
40971;SDS011;26701;47.408;19.174;2023-02-15T09:26:14;51.80;;;23.17;;
40971;SDS011;26701;47.408;19.174;2023-02-15T09:28:42;48.60;;;25.73;;
40971;SDS011;26701;47.408;19.174;2023-02-15T09:31:12;49.55;;;26.73;;
40971;SDS011;26701;47.408;19.174;2023-02-15T09:33:43;47.63;;;23.60;;
40971;SDS011;26701;47.408;19.174;2023-02-15T09:36:18;55.15;;;25.35;;
40971;SDS011;26701;47.408;19.174;2023-02-15T09:38:50;49.28;;;25.08;;
40971;SDS011;26701;47.408;19.174;2023-02-15T09:44:42;53.30;;;25.50;;
40971;SDS011;26701;47.408;19.174;2023-02-15T10:03:53;55.67;;;27.27;;
40971;SDS011;26701;47.408;19.174;2023-02-15T10:17:27;52.60;;;27.75;;
40971;SDS011;26701;47.408;19.174;2023-02-15T10:28:17;53.45;;;28.27;;
40971;SDS011;26701;47.408;19.174;2023-02-15T10:30:49;54.00;;;28.70;;
40971;SDS011;26701;47.408;19.174;2023-02-15T10:33:38;60.47;;;28.98;;
40971;SDS011;26701;47.408;19.174;2023-02-15T10:42:01;43.92;;;22.83;;
40971;SDS011;26701;47.408;19.174;2023-02-15T10:49:37;43.03;;;21.73;;
40971;SDS011;26701;47.408;19.174;2023-02-15T11:07:36;39.03;;;21.08;;
40971;SDS011;26701;47.408;19.174;2023-02-15T11:12:31;39.22;;;21.58;;
40971;SDS011;26701;47.408;19.174;2023-02-15T11:15:01;42.55;;;23.15;;
40971;SDS011;26701;47.408;19.174;2023-02-15T11:17:46;46.20;;;22.77;;
40971;SDS011;26701;47.408;19.174;2023-02-15T11:20:23;43.15;;;21.63;;
40971;SDS011;26701;47.408;19.174;2023-02-15T11:22:56;36.70;;;19.88;;
40971;SDS011;26701;47.408;19.174;2023-02-15T11:25:24;38.97;;;20.58;;
40971;SDS011;26701;47.408;19.174;2023-02-15T11:27:53;41.47;;;21.08;;
40971;SDS011;26701;47.408;19.174;2023-02-15T11:30:25;43.38;;;23.52;;
40971;SDS011;26701;47.408;19.174;2023-02-15T11:33:12;52.75;;;27.60;;
40971;SDS011;26701;47.408;19.174;2023-02-15T11:35:55;46.10;;;24.92;;
40971;SDS011;26701;47.408;19.174;2023-02-15T11:38:33;42.95;;;24.30;;
40971;SDS011;26701;47.408;19.174;2023-02-15T11:41:07;43.45;;;25.73;;
40971;SDS011;26701;47.408;19.174;2023-02-15T11:46:07;45.72;;;25.00;;
40971;SDS011;26701;47.408;19.174;2023-02-15T11:48:33;47.63;;;23.30;;
40971;SDS011;26701;47.408;19.174;2023-02-15T11:50:59;40.38;;;19.30;;
40971;SDS011;26701;47.408;19.174;2023-02-15T11:53:27;37.42;;;20.27;;
40971;SDS011;26701;47.408;19.174;2023-02-15T11:55:56;45.45;;;21.63;;
40971;SDS011;26701;47.408;19.174;2023-02-15T12:09:35;43.15;;;23.98;;
40971;SDS011;26701;47.408;19.174;2023-02-15T12:14:53;44.97;;;23.65;;
40971;SDS011;26701;47.408;19.174;2023-02-15T12:17:20;37.78;;;22.83;;
40971;SDS011;26701;47.408;19.174;2023-02-15T12:19:48;45.35;;;23.63;;
40971;SDS011;26701;47.408;19.174;2023-02-15T12:22:33;48.55;;;25.67;;
40971;SDS011;26701;47.408;19.174;2023-02-15T12:25:16;46.67;;;25.35;;
40971;SDS011;26701;47.408;19.174;2023-02-15T12:27:51;48.05;;;26.13;;
40971;SDS011;26701;47.408;19.174;2023-02-15T12:30:25;47.20;;;26.52;;
40971;SDS011;26701;47.408;19.174;2023-02-15T12:32:57;53.70;;;27.98;;
40971;SDS011;26701;47.408;19.174;2023-02-15T12:35:38;46.80;;;26.52;;
40971;SDS011;26701;47.408;19.174;2023-02-15T12:40:36;43.95;;;24.42;;
40971;SDS011;26701;47.408;19.174;2023-02-15T12:43:03;38.92;;;21.65;;
40971;SDS011;26701;47.408;19.174;2023-02-15T12:45:34;44.30;;;23.10;;
40971;SDS011;26701;47.408;19.174;2023-02-15T12:48:18;48.30;;;24.73;;
40971;SDS011;26701;47.408;19.174;2023-02-15T12:50:46;41.03;;;21.80;;
40971;SDS011;26701;47.408;19.174;2023-02-15T12:55:55;42.35;;;23.60;;
40971;SDS011;26701;47.408;19.174;2023-02-15T12:58:26;43.47;;;23.20;;
40971;SDS011;26701;47.408;19.174;2023-02-15T13:06:53;41.15;;;23.35;;
40971;SDS011;26701;47.408;19.174;2023-02-15T13:09:26;47.60;;;23.75;;
40971;SDS011;26701;47.408;19.174;2023-02-15T13:12:11;45.08;;;23.05;;
40971;SDS011;26701;47.408;19.174;2023-02-15T13:15:03;40.63;;;21.98;;
40971;SDS011;26701;47.408;19.174;2023-02-15T13:17:47;47.67;;;25.35;;
40971;SDS011;26701;47.408;19.174;2023-02-15T13:20:16;49.35;;;24.00;;
40971;SDS011;26701;47.408;19.174;2023-02-15T13:22:47;43.25;;;23.23;;
40971;SDS011;26701;47.408;19.174;2023-02-15T13:25:20;44.80;;;23.38;;
40971;SDS011;26701;47.408;19.174;2023-02-15T13:27:50;42.55;;;22.20;;
40971;SDS011;26701;47.408;19.174;2023-02-15T13:32:51;45.67;;;23.23;;
40971;SDS011;26701;47.408;19.174;2023-02-15T13:35:20;38.75;;;21.67;;
40971;SDS011;26701;47.408;19.174;2023-02-15T13:40:18;42.38;;;22.30;;
40971;SDS011;26701;47.408;19.174;2023-02-15T13:42:55;44.80;;;24.65;;
40971;SDS011;26701;47.408;19.174;2023-02-15T13:53:53;46.05;;;23.85;;
40971;SDS011;26701;47.408;19.174;2023-02-15T14:08:14;36.88;;;23.40;;
40971;SDS011;26701;47.408;19.174;2023-02-15T14:13:41;36.13;;;21.70;;
40971;SDS011;26701;47.408;19.174;2023-02-15T14:19:12;36.38;;;21.67;;
40971;SDS011;26701;47.408;19.174;2023-02-15T14:21:51;36.25;;;21.88;;
40971;SDS011;26701;47.408;19.174;2023-02-15T14:24:30;39.38;;;24.90;;
40971;SDS011;26701;47.408;19.174;2023-02-15T14:29:41;36.83;;;20.75;;
40971;SDS011;26701;47.408;19.174;2023-02-15T14:32:21;36.67;;;21.92;;
40971;SDS011;26701;47.408;19.174;2023-02-15T14:34:59;39.67;;;21.88;;
40971;SDS011;26701;47.408;19.174;2023-02-15T14:56:42;35.70;;;19.95;;
40971;SDS011;26701;47.408;19.174;2023-02-15T15:04:32;40.05;;;20.90;;
40971;SDS011;26701;47.408;19.174;2023-02-15T15:07:23;37.83;;;21.90;;
40971;SDS011;26701;47.408;19.174;2023-02-15T15:12:41;39.78;;;21.05;;
40971;SDS011;26701;47.408;19.174;2023-02-15T15:15:11;47.13;;;23.30;;
40971;SDS011;26701;47.408;19.174;2023-02-15T15:20:12;42.75;;;23.60;;
40971;SDS011;26701;47.408;19.174;2023-02-15T15:28:06;38.53;;;21.02;;
40971;SDS011;26701;47.408;19.174;2023-02-15T15:33:01;44.88;;;22.38;;
40971;SDS011;26701;47.408;19.174;2023-02-15T15:41:14;39.05;;;21.98;;
40971;SDS011;26701;47.408;19.174;2023-02-15T15:49:37;42.28;;;20.33;;
40971;SDS011;26701;47.408;19.174;2023-02-15T15:52:17;43.95;;;21.35;;
40971;SDS011;26701;47.408;19.174;2023-02-15T15:54:45;44.03;;;22.63;;
40971;SDS011;26701;47.408;19.174;2023-02-15T16:00:03;46.28;;;23.15;;
40971;SDS011;26701;47.408;19.174;2023-02-15T16:02:49;43.70;;;22.50;;
40971;SDS011;26701;47.408;19.174;2023-02-15T16:05:18;49.72;;;24.45;;
40971;SDS011;26701;47.408;19.174;2023-02-15T16:07:45;51.30;;;24.00;;
40971;SDS011;26701;47.408;19.174;2023-02-15T16:10:24;49.10;;;23.50;;
40971;SDS011;26701;47.408;19.174;2023-02-15T16:12:51;47.67;;;23.55;;
40971;SDS011;26701;47.408;19.174;2023-02-15T16:15:19;52.33;;;24.45;;
40971;SDS011;26701;47.408;19.174;2023-02-15T16:17:46;59.03;;;23.88;;
40971;SDS011;26701;47.408;19.174;2023-02-15T16:20:18;49.95;;;24.70;;
40971;SDS011;26701;47.408;19.174;2023-02-15T16:28:54;53.53;;;24.98;;
40971;SDS011;26701;47.408;19.174;2023-02-15T16:31:20;57.70;;;26.80;;
40971;SDS011;26701;47.408;19.174;2023-02-15T16:33:47;63.47;;;27.35;;
40971;SDS011;26701;47.408;19.174;2023-02-15T16:41:28;55.78;;;28.05;;
40971;SDS011;26701;47.408;19.174;2023-02-15T16:43:59;63.22;;;28.50;;
40971;SDS011;26701;47.408;19.174;2023-02-15T16:46:27;52.60;;;25.58;;
40971;SDS011;26701;47.408;19.174;2023-02-15T16:48:55;59.05;;;28.00;;
40971;SDS011;26701;47.408;19.174;2023-02-15T16:51:22;59.67;;;26.30;;
40971;SDS011;26701;47.408;19.174;2023-02-15T16:53:50;55.95;;;26.20;;
40971;SDS011;26701;47.408;19.174;2023-02-15T16:56:22;63.90;;;28.73;;
40971;SDS011;26701;47.408;19.174;2023-02-15T16:58:50;63.67;;;27.52;;
40971;SDS011;26701;47.408;19.174;2023-02-15T17:01:17;56.45;;;24.70;;
40971;SDS011;26701;47.408;19.174;2023-02-15T17:03:46;61.63;;;26.98;;
40971;SDS011;26701;47.408;19.174;2023-02-15T17:06:24;65.53;;;29.83;;
40971;SDS011;26701;47.408;19.174;2023-02-15T17:08:51;64.00;;;30.35;;
40971;SDS011;26701;47.408;19.174;2023-02-15T17:11:18;66.45;;;29.50;;
40971;SDS011;26701;47.408;19.174;2023-02-15T17:16:30;68.28;;;29.88;;
40971;SDS011;26701;47.408;19.174;2023-02-15T17:18:59;79.28;;;32.25;;
40971;SDS011;26701;47.408;19.174;2023-02-15T17:21:27;70.35;;;31.45;;
40971;SDS011;26701;47.408;19.174;2023-02-15T17:24:00;68.63;;;31.77;;
40971;SDS011;26701;47.408;19.174;2023-02-15T17:26:30;71.00;;;33.72;;
40971;SDS011;26701;47.408;19.174;2023-02-15T17:28:59;70.00;;;32.55;;
40971;SDS011;26701;47.408;19.174;2023-02-15T17:31:39;67.60;;;32.25;;
40971;SDS011;26701;47.408;19.174;2023-02-15T17:34:06;67.35;;;31.08;;
40971;SDS011;26701;47.408;19.174;2023-02-15T17:36:32;77.97;;;34.05;;
40971;SDS011;26701;47.408;19.174;2023-02-15T17:41:25;77.40;;;34.10;;
40971;SDS011;26701;47.408;19.174;2023-02-15T17:43:51;77.78;;;33.67;;
40971;SDS011;26701;47.408;19.174;2023-02-15T17:46:16;81.18;;;36.83;;
40971;SDS011;26701;47.408;19.174;2023-02-15T17:48:52;82.95;;;38.15;;
40971;SDS011;26701;47.408;19.174;2023-02-15T17:51:20;87.72;;;41.30;;
40971;SDS011;26701;47.408;19.174;2023-02-15T17:53:46;84.80;;;40.15;;
40971;SDS011;26701;47.408;19.174;2023-02-15T17:56:32;88.78;;;43.05;;
40971;SDS011;26701;47.408;19.174;2023-02-15T17:58:58;94.38;;;43.70;;
40971;SDS011;26701;47.408;19.174;2023-02-15T18:01:24;99.35;;;42.55;;
40971;SDS011;26701;47.408;19.174;2023-02-15T18:04:12;101.95;;;43.25;;
40971;SDS011;26701;47.408;19.174;2023-02-15T18:06:57;116.93;;;52.87;;
40971;SDS011;26701;47.408;19.174;2023-02-15T18:09:42;106.40;;;47.92;;
40971;SDS011;26701;47.408;19.174;2023-02-15T18:12:28;108.53;;;49.70;;
40971;SDS011;26701;47.408;19.174;2023-02-15T18:14:55;114.05;;;47.90;;
40971;SDS011;26701;47.408;19.174;2023-02-15T18:17:23;117.43;;;51.25;;